createdAt,value
2023-05-18T00:01:22.750Z,7.43
2023-05-18T00:03:49.617Z,7.46
2023-05-18T00:06:16.630Z,7.48
2023-05-18T00:08:43.286Z,7.59
2023-05-18T00:11:10.206Z,7.54
2023-05-18T00:13:36.992Z,7.41
2023-05-18T00:16:03.734Z,7.36
2023-05-18T00:18:30.709Z,7.39
2023-05-18T00:21:00.848Z,7.31
2023-05-18T00:23:33.227Z,7.40
2023-05-18T00:26:01.515Z,7.50
2023-05-18T00:28:29.501Z,7.51
2023-05-18T00:30:57.562Z,7.58
2023-05-18T00:33:24.331Z,7.35
2023-05-18T00:35:51.104Z,7.58
2023-05-18T00:38:18.088Z,7.51
2023-05-18T00:40:44.947Z,7.37
2023-05-18T00:43:11.996Z,7.41
2023-05-18T00:45:38.970Z,7.37
2023-05-18T00:48:06.348Z,7.33
2023-05-18T00:50:33.574Z,7.37
2023-05-18T00:53:00.669Z,7.31
2023-05-18T00:55:28.824Z,7.39
2023-05-18T00:57:57.496Z,7.29
2023-05-18T01:00:24.559Z,7.33
2023-05-18T01:02:51.847Z,7.13
2023-05-18T01:05:20.357Z,7.14
2023-05-18T01:07:48.224Z,7.10
2023-05-18T01:10:17.450Z,7.11
2023-05-18T01:13:29.795Z,7.23
2023-05-18T01:16:01.994Z,7.14
2023-05-18T01:18:38.434Z,7.16
2023-05-18T01:21:43.454Z,7.12
2023-05-18T01:24:16.186Z,7.06
2023-05-18T01:26:45.513Z,7.03
2023-05-18T01:29:14.254Z,7.05
2023-05-18T01:31:41.309Z,6.96
2023-05-18T01:34:08.078Z,7.01
2023-05-18T01:36:34.804Z,7.04
2023-05-18T01:39:02.307Z,6.97
2023-05-18T01:41:30.748Z,6.96
2023-05-18T01:44:21.024Z,6.97
2023-05-18T01:46:57.405Z,7.03
2023-05-18T01:49:37.546Z,7.01
2023-05-18T01:52:33.827Z,6.96
2023-05-18T01:55:03.617Z,6.92
2023-05-18T01:57:32.983Z,6.80
2023-05-18T02:00:04.540Z,6.62
2023-05-18T02:02:31.542Z,6.78
2023-05-18T02:04:58.222Z,6.51
2023-05-18T02:07:25.188Z,6.66
2023-05-18T02:09:51.962Z,6.63
2023-05-18T02:12:18.677Z,6.62
2023-05-18T02:14:45.804Z,6.70
2023-05-18T02:17:12.557Z,6.72
2023-05-18T02:19:39.558Z,6.76
2023-05-18T02:22:07.339Z,6.75
2023-05-18T02:24:34.877Z,6.62
2023-05-18T02:27:02.254Z,6.65
2023-05-18T02:29:29.137Z,6.44
2023-05-18T02:31:55.948Z,6.37
2023-05-18T02:34:23.566Z,6.51
2023-05-18T02:36:50.780Z,6.54
2023-05-18T02:39:17.483Z,6.49
2023-05-18T02:41:47.307Z,6.68
2023-05-18T02:44:14.228Z,6.59
2023-05-18T02:46:42.279Z,6.43
2023-05-18T02:49:10.028Z,6.51
2023-05-18T02:51:37.051Z,6.50
2023-05-18T02:54:03.724Z,6.54
2023-05-18T02:56:30.661Z,6.75
2023-05-18T02:58:58.548Z,6.52
2023-05-18T03:01:27.324Z,6.45
2023-05-18T03:03:54.833Z,6.36
2023-05-18T03:06:27.018Z,6.41
2023-05-18T03:08:54.661Z,6.32
2023-05-18T03:11:25.227Z,6.45
2023-05-18T03:13:52.341Z,6.52
2023-05-18T03:16:19.048Z,6.41
2023-05-18T03:18:46.288Z,6.38
2023-05-18T03:21:13.981Z,6.31
2023-05-18T03:23:41.051Z,6.38
2023-05-18T03:26:11.837Z,6.34
2023-05-18T03:28:39.634Z,6.34
2023-05-18T03:31:06.791Z,6.33
2023-05-18T03:33:33.963Z,6.34
2023-05-18T03:36:04.804Z,6.39
2023-05-18T03:38:31.951Z,6.50
2023-05-18T03:40:58.948Z,6.39
2023-05-18T03:43:26.169Z,6.32
2023-05-18T03:45:53.695Z,6.51
2023-05-18T03:48:21.418Z,6.48
2023-05-18T03:50:49.011Z,6.32
2023-05-18T03:53:19.453Z,6.43
2023-05-18T03:55:46.733Z,6.35
2023-05-18T03:58:13.589Z,6.35
2023-05-18T04:00:40.697Z,6.42
2023-05-18T04:03:07.580Z,6.41
2023-05-18T04:05:34.494Z,6.29
2023-05-18T04:08:01.291Z,6.47
2023-05-18T04:10:28.096Z,6.58
2023-05-18T04:12:54.945Z,6.47
2023-05-18T04:15:21.820Z,6.64
2023-05-18T04:17:51.543Z,6.63
2023-05-18T04:20:21.448Z,6.66
2023-05-18T04:22:49.116Z,6.57
2023-05-18T04:25:16.362Z,6.60
2023-05-18T04:27:45.773Z,6.60
2023-05-18T04:30:13.242Z,6.60
2023-05-18T04:32:43.324Z,6.64
2023-05-18T04:35:11.811Z,6.69
2023-05-18T04:37:40.548Z,6.63
2023-05-18T04:40:09.200Z,6.65
2023-05-18T04:42:36.425Z,6.69
2023-05-18T04:45:03.530Z,6.61
2023-05-18T04:47:31.302Z,6.55
2023-05-18T04:49:58.066Z,6.60
2023-05-18T04:52:24.979Z,6.52
2023-05-18T04:54:51.820Z,6.57
2023-05-18T04:57:18.508Z,6.64
2023-05-18T04:59:47.500Z,6.64
2023-05-18T05:02:14.812Z,6.58
2023-05-18T05:04:42.114Z,6.52
2023-05-18T05:07:10.763Z,6.49
2023-05-18T05:09:37.739Z,6.29
2023-05-18T05:12:04.698Z,6.74
2023-05-18T05:14:31.483Z,6.70
2023-05-18T05:16:58.226Z,6.62
2023-05-18T05:19:25.150Z,6.60
2023-05-18T05:21:52.039Z,6.53
2023-05-18T05:24:18.823Z,6.56
2023-05-18T05:26:45.588Z,6.42
2023-05-18T05:29:12.300Z,6.30
2023-05-18T05:31:39.051Z,6.35
2023-05-18T05:34:05.926Z,6.46
2023-05-18T05:36:33.991Z,6.53
2023-05-18T05:39:00.822Z,6.57
2023-05-18T05:41:27.593Z,6.49
2023-05-18T05:43:54.378Z,6.42
2023-05-18T05:46:21.342Z,6.51
2023-05-18T05:48:48.208Z,6.61
2023-05-18T05:51:14.976Z,6.68
2023-05-18T05:53:43.705Z,6.56
2023-05-18T05:56:10.457Z,6.52
2023-05-18T05:58:37.216Z,6.39
2023-05-18T06:01:04.791Z,6.45
2023-05-18T06:03:33.658Z,6.51
2023-05-18T06:06:01.951Z,6.45
2023-05-18T06:08:29.480Z,6.47
2023-05-18T06:10:56.398Z,6.38
2023-05-18T06:13:23.118Z,6.51
2023-05-18T06:15:49.889Z,6.58
2023-05-18T06:18:16.699Z,6.51
2023-05-18T06:20:43.492Z,6.33
2023-05-18T06:23:10.254Z,6.23
2023-05-18T06:25:36.924Z,6.27
2023-05-18T06:28:03.750Z,6.26
2023-05-18T06:30:30.625Z,6.27
2023-05-18T06:32:57.386Z,6.23
2023-05-18T06:35:25.093Z,6.37
2023-05-18T06:37:51.944Z,6.30
2023-05-18T06:40:18.811Z,6.39
2023-05-18T06:42:45.529Z,6.43
2023-05-18T06:45:13.493Z,6.30
2023-05-18T06:47:40.346Z,6.27
2023-05-18T06:50:07.739Z,6.17
2023-05-18T06:52:34.479Z,6.34
2023-05-18T06:55:04.393Z,6.27
2023-05-18T06:57:32.144Z,6.51
2023-05-18T06:59:58.829Z,6.62
2023-05-18T07:02:25.689Z,6.77
2023-05-18T07:04:52.845Z,6.86
2023-05-18T07:07:21.672Z,6.65
2023-05-18T07:09:50.094Z,6.60
2023-05-18T07:12:16.926Z,6.61
2023-05-18T07:14:43.698Z,6.72
2023-05-18T07:17:10.483Z,6.68
2023-05-18T07:19:37.256Z,6.71
2023-05-18T07:22:04.876Z,6.94
2023-05-18T07:24:32.601Z,6.88
2023-05-18T07:27:00.892Z,6.89
2023-05-18T07:29:28.029Z,6.79
2023-05-18T07:31:54.997Z,6.96
2023-05-18T07:34:21.928Z,6.89
2023-05-18T07:36:50.849Z,7.06
2023-05-18T07:39:20.301Z,7.04
2023-05-18T07:41:48.618Z,6.95
2023-05-18T07:44:16.005Z,6.98
2023-05-18T07:46:43.524Z,6.81
2023-05-18T07:49:10.426Z,6.83
2023-05-18T07:51:37.178Z,6.96
2023-05-18T07:54:05.461Z,6.92
2023-05-18T07:56:32.169Z,7.04
2023-05-18T07:58:58.912Z,6.97
2023-05-18T08:01:28.421Z,6.83
2023-05-18T08:03:55.241Z,7.11
2023-05-18T08:06:22.465Z,7.30
2023-05-18T08:08:49.325Z,7.42
2023-05-18T08:11:16.322Z,7.25
2023-05-18T08:13:43.246Z,7.26
2023-05-18T08:16:11.824Z,7.22
2023-05-18T08:18:39.710Z,7.21
2023-05-18T08:21:09.926Z,7.26
2023-05-18T08:23:37.666Z,7.42
2023-05-18T08:26:04.697Z,7.41
2023-05-18T08:28:31.951Z,7.25
2023-05-18T08:30:58.811Z,7.28
2023-05-18T08:33:26.009Z,7.46
2023-05-18T08:35:54.313Z,7.60
2023-05-18T08:38:21.311Z,7.42
2023-05-18T08:41:03.270Z,7.34
2023-05-18T08:43:33.705Z,7.59
2023-05-18T08:46:33.750Z,7.61
2023-05-18T08:49:03.588Z,7.38
2023-05-18T08:51:35.108Z,7.20
2023-05-18T08:54:03.701Z,7.64
2023-05-18T08:56:33.772Z,7.65
2023-05-18T08:59:08.197Z,7.57
2023-05-18T09:01:36.112Z,7.84
2023-05-18T09:04:03.455Z,7.82
2023-05-18T09:06:30.999Z,7.65
2023-05-18T09:08:58.601Z,7.84
2023-05-18T09:11:27.082Z,7.90
2023-05-18T09:13:55.185Z,7.90
2023-05-18T09:16:22.011Z,7.79
2023-05-18T09:18:48.787Z,7.99
2023-05-18T09:21:15.874Z,7.98
2023-05-18T09:23:44.653Z,8.04
2023-05-18T09:26:12.909Z,8.01
2023-05-18T09:28:42.073Z,8.17
2023-05-18T09:31:12.820Z,8.04
2023-05-18T09:33:40.911Z,8.17
2023-05-18T09:36:09.464Z,8.23
2023-05-18T09:38:40.878Z,8.12
2023-05-18T09:41:16.748Z,8.00
2023-05-18T09:43:48.619Z,8.18
2023-05-18T09:46:15.356Z,8.24
2023-05-18T09:48:44.551Z,8.17
2023-05-18T09:51:16.579Z,8.18
2023-05-18T09:53:54.369Z,8.12
2023-05-18T09:56:22.741Z,8.10
2023-05-18T09:58:49.582Z,8.17
2023-05-18T10:01:16.525Z,8.33
2023-05-18T10:03:45.812Z,8.29
2023-05-18T10:06:17.505Z,8.00
2023-05-18T10:08:45.709Z,7.96
2023-05-18T10:11:12.795Z,7.89
2023-05-18T10:13:44.198Z,7.97
2023-05-18T10:16:11.105Z,7.93
2023-05-18T10:18:39.031Z,7.89
2023-05-18T10:21:09.899Z,8.05
2023-05-18T10:23:37.433Z,8.03
2023-05-18T10:26:08.202Z,8.22
2023-05-18T10:28:53.659Z,8.21
2023-05-18T10:31:23.160Z,8.28
2023-05-18T10:33:50.861Z,8.39
2023-05-18T10:36:18.032Z,8.00
2023-05-18T10:38:45.668Z,8.15
2023-05-18T10:41:12.704Z,8.12
2023-05-18T10:43:41.808Z,8.26
2023-05-18T10:46:09.697Z,8.44
2023-05-18T10:48:42.709Z,8.55
2023-05-18T10:51:09.613Z,8.51
2023-05-18T10:53:36.975Z,8.46
2023-05-18T10:56:03.975Z,8.35
2023-05-18T10:58:32.106Z,8.48
2023-05-18T11:01:01.753Z,8.39
2023-05-18T11:03:28.982Z,8.41
2023-05-18T11:06:09.137Z,8.46
2023-05-18T11:08:44.676Z,8.27
2023-05-18T11:11:11.662Z,8.29
2023-05-18T11:13:45.117Z,8.38
2023-05-18T11:16:12.251Z,8.19
2023-05-18T11:18:50.061Z,8.17
2023-05-18T11:21:35.057Z,8.33
2023-05-18T11:24:25.216Z,8.39
2023-05-18T11:26:53.428Z,8.25
2023-05-18T11:29:42.196Z,8.29
2023-05-18T11:32:30.384Z,8.19
2023-05-18T11:34:59.698Z,8.23
2023-05-18T11:37:38.901Z,8.28
2023-05-18T11:40:11.635Z,8.39
2023-05-18T11:42:38.801Z,8.18
2023-05-18T11:45:13.175Z,8.19
2023-05-18T11:47:43.239Z,8.31
2023-05-18T11:50:14.093Z,8.33
2023-05-18T11:52:48.440Z,8.16
2023-05-18T11:55:17.185Z,8.22
2023-05-18T11:57:45.721Z,8.42
2023-05-18T12:00:13.244Z,8.42
2023-05-18T12:02:44.184Z,8.65
2023-05-18T12:05:11.676Z,8.62
2023-05-18T12:07:42.079Z,8.89
2023-05-18T12:10:14.917Z,8.59
2023-05-18T12:12:42.640Z,8.56
2023-05-18T12:15:11.960Z,8.39
2023-05-18T12:17:43.749Z,8.35
2023-05-18T12:20:15.531Z,8.35
2023-05-18T12:22:50.576Z,8.32
2023-05-18T12:25:20.423Z,8.54
2023-05-18T12:27:50.748Z,8.67
2023-05-18T12:30:24.861Z,8.63
2023-05-18T12:32:56.338Z,8.44
2023-05-18T12:35:24.313Z,8.21
2023-05-18T12:37:51.442Z,8.15
2023-05-18T12:40:19.530Z,8.06
2023-05-18T12:43:00.361Z,8.13
2023-05-18T12:45:29.156Z,8.05
2023-05-18T12:47:56.599Z,8.19
2023-05-18T12:50:27.102Z,8.21
2023-05-18T12:52:56.858Z,8.16
2023-05-18T12:55:31.459Z,8.02
2023-05-18T12:58:03.382Z,7.91
2023-05-18T13:00:37.965Z,7.96
2023-05-18T13:03:11.039Z,8.07
2023-05-18T13:05:45.859Z,8.17
2023-05-18T13:08:22.207Z,8.05
2023-05-18T13:11:01.316Z,8.08
2023-05-18T13:13:36.663Z,8.36
2023-05-18T13:16:03.508Z,8.58
2023-05-18T13:18:30.292Z,8.58
2023-05-18T13:20:58.763Z,8.47
2023-05-18T13:23:29.635Z,8.25
2023-05-18T13:25:58.717Z,8.35
2023-05-18T13:28:27.035Z,8.43
2023-05-18T13:30:53.908Z,8.20
2023-05-18T13:33:21.748Z,8.07
2023-05-18T13:35:50.160Z,7.91
2023-05-18T13:38:17.164Z,7.55
2023-05-18T13:40:44.319Z,7.29
2023-05-18T13:43:13.571Z,7.34
2023-05-18T13:45:43.665Z,7.14
2023-05-18T13:48:11.298Z,7.09
2023-05-18T13:50:40.862Z,7.26
2023-05-18T13:53:07.692Z,7.14
2023-05-18T13:55:35.937Z,7.27
2023-05-18T13:58:08.696Z,7.27
2023-05-18T14:00:36.627Z,7.41
2023-05-18T14:03:04.087Z,7.44
2023-05-18T14:05:31.041Z,7.34
2023-05-18T14:07:57.837Z,7.50
2023-05-18T14:10:24.554Z,7.31
2023-05-18T14:12:51.384Z,7.23
2023-05-18T14:15:18.379Z,7.31
2023-05-18T14:17:45.444Z,7.41
2023-05-18T14:20:13.089Z,7.37
2023-05-18T14:22:40.488Z,7.48
2023-05-18T14:25:07.880Z,7.27
2023-05-18T14:27:34.725Z,7.33
2023-05-18T14:30:01.596Z,7.37
2023-05-18T14:32:28.525Z,7.37
2023-05-18T14:34:58.254Z,7.49
2023-05-18T14:37:25.235Z,7.53
2023-05-18T14:39:52.096Z,7.61
2023-05-18T14:42:19.481Z,7.45
2023-05-18T14:44:47.049Z,7.51
2023-05-18T14:47:14.026Z,7.37
2023-05-18T14:49:41.261Z,7.23
2023-05-18T14:52:08.174Z,7.28
2023-05-18T14:54:34.955Z,7.22
2023-05-18T14:57:01.869Z,7.29
2023-05-18T14:59:28.830Z,7.37
2023-05-18T15:01:55.757Z,7.39
2023-05-18T15:04:22.719Z,7.41
2023-05-18T15:06:52.662Z,7.32
2023-05-18T15:09:19.499Z,7.33
2023-05-18T15:11:46.672Z,7.13
2023-05-18T15:14:13.433Z,6.94
2023-05-18T15:16:40.328Z,7.09
2023-05-18T15:19:07.113Z,7.08
2023-05-18T15:21:33.889Z,7.15
2023-05-18T15:24:00.732Z,7.16
2023-05-18T15:26:27.736Z,7.14
2023-05-18T15:28:54.658Z,6.95
2023-05-18T15:31:21.772Z,6.79
2023-05-18T15:33:48.582Z,6.51
2023-05-18T15:36:16.442Z,6.42
2023-05-18T15:38:45.417Z,6.44
2023-05-18T15:41:14.153Z,6.59
2023-05-18T15:43:42.012Z,6.47
2023-05-18T15:46:08.918Z,6.52
2023-05-18T15:48:35.877Z,6.58
2023-05-18T15:51:02.627Z,6.56
2023-05-18T15:53:29.557Z,6.76
2023-05-18T15:55:59.123Z,6.54
2023-05-18T15:58:26.832Z,6.68
2023-05-18T16:00:53.965Z,6.76
2023-05-18T16:03:22.261Z,6.64
2023-05-18T16:05:49.181Z,6.76
2023-05-18T16:08:16.487Z,6.99
2023-05-18T16:10:43.350Z,7.05
2023-05-18T16:13:11.098Z,7.06
2023-05-18T16:15:38.071Z,7.14
2023-05-18T16:18:05.182Z,7.13
2023-05-18T16:20:32.381Z,7.19
2023-05-18T16:22:59.496Z,7.16
2023-05-18T16:25:28.865Z,7.15
2023-05-18T16:27:55.760Z,7.10
2023-05-18T16:30:22.643Z,7.26
2023-05-18T16:32:49.486Z,7.18
2023-05-18T16:35:16.352Z,7.13
2023-05-18T16:37:43.195Z,7.10
2023-05-18T16:40:10.866Z,7.06
2023-05-18T16:42:37.770Z,6.90
2023-05-18T16:45:05.177Z,6.93
2023-05-18T16:47:34.789Z,6.82
2023-05-18T16:50:01.770Z,6.86
2023-05-18T16:52:28.876Z,6.98
2023-05-18T16:54:56.613Z,6.98
2023-05-18T16:57:26.658Z,6.91
2023-05-18T16:59:54.118Z,6.83
2023-05-18T17:02:21.128Z,6.95
2023-05-18T17:04:50.082Z,6.97
2023-05-18T17:07:17.301Z,6.93
2023-05-18T17:09:44.403Z,6.91
2023-05-18T17:12:12.054Z,6.97
2023-05-18T17:14:39.102Z,6.80
2023-05-18T17:17:06.774Z,7.10
2023-05-18T17:19:35.409Z,7.09
2023-05-18T17:22:03.335Z,6.90
2023-05-18T17:24:30.998Z,6.91
2023-05-18T17:26:58.249Z,6.95
2023-05-18T17:29:25.024Z,6.97
2023-05-18T17:31:51.998Z,6.85
2023-05-18T17:34:18.781Z,6.96
2023-05-18T17:36:45.992Z,6.98
2023-05-18T17:39:13.272Z,6.92
2023-05-18T17:41:40.093Z,7.00
2023-05-18T17:44:07.139Z,7.08
2023-05-18T17:46:34.168Z,7.13
2023-05-18T17:49:05.078Z,6.99
2023-05-18T17:51:34.874Z,6.93
2023-05-18T17:54:01.903Z,6.94
2023-05-18T17:56:30.670Z,6.93
2023-05-18T17:58:59.363Z,6.88
2023-05-18T18:01:29.089Z,6.68
2023-05-18T18:03:57.580Z,6.89
2023-05-18T18:06:24.932Z,6.94
2023-05-18T18:08:54.024Z,6.95
2023-05-18T18:11:21.989Z,6.95
2023-05-18T18:13:49.413Z,6.99
2023-05-18T18:16:16.810Z,6.85
2023-05-18T18:18:43.687Z,6.84
2023-05-18T18:21:10.735Z,6.94
2023-05-18T18:23:39.051Z,7.00
2023-05-18T18:26:06.704Z,7.06
2023-05-18T18:28:34.636Z,7.04
2023-05-18T18:31:03.726Z,7.03
2023-05-18T18:33:32.747Z,7.00
2023-05-18T18:36:00.572Z,6.96
2023-05-18T18:38:28.844Z,6.79
2023-05-18T18:41:01.913Z,6.99
2023-05-18T18:43:29.680Z,6.84
2023-05-18T18:45:57.429Z,6.82
2023-05-18T18:48:24.717Z,6.92
2023-05-18T18:50:51.636Z,6.91
2023-05-18T18:53:18.388Z,6.81
2023-05-18T18:55:46.208Z,6.91
2023-05-18T18:58:13.175Z,6.84
2023-05-18T19:00:39.910Z,6.94
2023-05-18T19:03:06.640Z,6.91
2023-05-18T19:05:33.827Z,6.90
2023-05-18T19:08:01.962Z,6.78
2023-05-18T19:10:28.939Z,6.94
2023-05-18T19:12:57.214Z,6.92
2023-05-18T19:15:24.060Z,6.90
2023-05-18T19:17:53.652Z,6.88
2023-05-18T19:20:21.223Z,6.91
2023-05-18T19:22:48.003Z,6.89
2023-05-18T19:25:17.440Z,6.91
2023-05-18T19:27:44.271Z,6.83
2023-05-18T19:30:13.345Z,6.80
2023-05-18T19:32:40.861Z,6.79
2023-05-18T19:35:08.824Z,6.84
2023-05-18T19:37:35.584Z,6.76
2023-05-18T19:40:02.306Z,6.74
2023-05-18T19:42:29.562Z,6.59
2023-05-18T19:44:56.411Z,6.55
2023-05-18T19:47:23.129Z,6.74
2023-05-18T19:49:50.008Z,6.73
2023-05-18T19:52:18.490Z,6.70
2023-05-18T19:54:45.340Z,6.69
2023-05-18T19:57:12.146Z,6.62
2023-05-18T19:59:38.939Z,6.54
2023-05-18T20:02:06.311Z,6.63
2023-05-18T20:04:33.904Z,6.62
2023-05-18T20:07:01.644Z,6.51
2023-05-18T20:09:28.809Z,6.46
2023-05-18T20:11:59.191Z,6.60
2023-05-18T20:14:27.284Z,6.57
2023-05-18T20:16:56.483Z,6.28
2023-05-18T20:19:23.524Z,6.51
2023-05-18T20:21:50.366Z,6.46
2023-05-18T20:24:17.322Z,6.52
2023-05-18T20:26:44.369Z,6.50
2023-05-18T20:29:11.168Z,6.46
2023-05-18T20:31:38.179Z,6.57
2023-05-18T20:34:07.181Z,6.55
2023-05-18T20:36:35.956Z,6.52
2023-05-18T20:39:03.070Z,6.59
2023-05-18T20:41:29.849Z,6.39
2023-05-18T20:43:57.105Z,6.46
2023-05-18T20:46:25.181Z,6.36
2023-05-18T20:48:55.503Z,6.47
2023-05-18T20:51:23.430Z,6.37
2023-05-18T20:53:50.323Z,6.31
2023-05-18T20:56:18.164Z,6.28
2023-05-18T20:58:48.916Z,6.26
2023-05-18T21:01:18.973Z,6.24
2023-05-18T21:03:46.051Z,6.30
2023-05-18T21:06:15.179Z,6.29
2023-05-18T21:08:42.566Z,6.25
2023-05-18T21:11:09.307Z,6.30
2023-05-18T21:13:37.177Z,6.36
2023-05-18T21:16:06.822Z,6.39
2023-05-18T21:18:37.633Z,6.37
2023-05-18T21:21:05.336Z,6.27
2023-05-18T21:23:32.183Z,6.26
2023-05-18T21:25:59.132Z,6.22
2023-05-18T21:28:25.970Z,6.21
2023-05-18T21:30:54.207Z,6.21
2023-05-18T21:33:22.153Z,6.14
2023-05-18T21:35:49.387Z,6.15
2023-05-18T21:38:17.348Z,6.22
2023-05-18T21:40:44.384Z,6.20
2023-05-18T21:43:11.180Z,6.09
2023-05-18T21:45:38.318Z,6.29
2023-05-18T21:48:05.497Z,6.30
2023-05-18T21:50:35.115Z,6.13
2023-05-18T21:53:03.484Z,5.92
2023-05-18T21:55:34.076Z,6.14
2023-05-18T21:58:00.866Z,6.22
2023-05-18T22:00:28.240Z,6.17
2023-05-18T22:02:55.191Z,6.19
2023-05-18T22:05:21.919Z,6.28
2023-05-18T22:07:48.959Z,6.24
2023-05-18T22:10:16.144Z,6.22
2023-05-18T22:12:43.761Z,6.23
2023-05-18T22:15:11.710Z,6.03
2023-05-18T22:17:39.345Z,6.10
2023-05-18T22:20:11.599Z,6.07
2023-05-18T22:22:40.500Z,6.17
2023-05-18T22:25:07.773Z,6.22
2023-05-18T22:27:36.735Z,6.20
2023-05-18T22:30:07.866Z,6.22
2023-05-18T22:32:34.762Z,6.23
2023-05-18T22:35:02.039Z,6.20
2023-05-18T22:37:28.942Z,6.20
2023-05-18T22:39:58.411Z,6.19
2023-05-18T22:42:25.258Z,6.21
2023-05-18T22:44:52.303Z,6.14
2023-05-18T22:47:23.848Z,6.06
2023-05-18T22:49:50.829Z,6.12
2023-05-18T22:52:21.036Z,5.98
2023-05-18T22:54:48.134Z,6.04
2023-05-18T22:57:14.826Z,6.03
2023-05-18T22:59:41.744Z,6.18
2023-05-18T23:02:08.590Z,6.18
2023-05-18T23:04:35.710Z,6.18
2023-05-18T23:07:04.316Z,6.00
2023-05-18T23:09:31.154Z,6.18
2023-05-18T23:11:59.822Z,6.20
2023-05-18T23:14:32.651Z,6.24
2023-05-18T23:17:00.698Z,6.15
2023-05-18T23:19:27.520Z,6.13
2023-05-18T23:21:54.749Z,6.34
2023-05-18T23:24:22.038Z,6.18
2023-05-18T23:26:48.687Z,6.34
2023-05-18T23:29:15.585Z,6.29
2023-05-18T23:31:42.388Z,6.17
2023-05-18T23:34:09.517Z,6.29
2023-05-18T23:36:39.880Z,6.14
2023-05-18T23:39:07.411Z,6.47
2023-05-18T23:41:35.922Z,6.45
2023-05-18T23:44:03.667Z,6.47
2023-05-18T23:46:31.351Z,6.53
2023-05-18T23:48:59.955Z,6.52
2023-05-18T23:51:32.213Z,6.38
2023-05-18T23:53:59.323Z,6.45
2023-05-18T23:56:26.581Z,6.47
2023-05-18T23:58:53.578Z,6.26
